Time,TemperatureF,DewpointF,PressureIn,WindDirection,WindDirectionDegrees,WindSpeedMPH,WindSpeedGustMPH,Humidity,HourlyPrecipIn,Conditions,Clouds,dailyrainin,SoftwareType,DateUTC
2017-02-25 00:04:00,59.1,57.4,29.57,South,187,7.0,12.0,94,0.27,,,0.01,Wunderground v.1.15,2017-02-25 05:04:00,
2017-02-25 00:09:00,59.1,57.4,29.57,WSW,257,8.0,12.0,94,0.58,,,0.03,Wunderground v.1.15,2017-02-25 05:09:00,
2017-02-25 00:15:00,59.1,57.7,29.57,WSW,252,7.0,8.0,95,0.09,,,0.03,Wunderground v.1.15,2017-02-25 05:15:00,
2017-02-25 00:20:00,59.1,57.7,29.59,West,261,8.0,15.0,95,0.05,,,0.03,Wunderground v.1.15,2017-02-25 05:20:00,
2017-02-25 00:25:00,58.9,57.8,29.59,WSW,243,8.0,15.0,96,0.36,,,0.07,Wunderground v.1.15,2017-02-25 05:25:00,
2017-02-25 09:16:00,42.8,33.7,29.76,West,262,9.0,15.0,70,0.00,,,0.37,Wunderground v.1.15,2017-02-25 14:16:00,
2017-02-25 09:22:00,43.2,34.4,29.76,West,263,9.0,9.0,71,0.00,,,0.37,Wunderground v.1.15,2017-02-25 14:22:00,
2017-02-25 09:29:00,42.4,33.7,29.77,SSW,198,11.0,15.0,71,0.00,,,0.37,Wunderground v.1.15,2017-02-25 14:29:00,
2017-02-25 09:36:00,42.0,33.3,29.77,West,265,11.0,15.0,71,0.00,,,0.37,Wunderground v.1.15,2017-02-25 14:36:00,
2017-02-25 09:42:00,41.0,33.7,29.78,WNW,296,9.0,11.0,75,0.00,,,0.37,Wunderground v.1.15,2017-02-25 14:42:00,
2017-02-25 09:48:00,40.5,33.9,29.78,WNW,290,10.0,15.0,77,0.00,,,0.37,Wunderground v.1.15,2017-02-25 14:48:00,
2017-02-25 09:54:00,40.3,33.3,29.78,West,272,10.0,15.0,76,0.00,,,0.37,Wunderground v.1.15,2017-02-25 14:54:00,
2017-02-25 10:00:00,40.1,32.1,29.78,WSW,247,10.0,15.0,73,0.00,,,0.37,Wunderground v.1.15,2017-02-25 15:00:00,
2017-02-25 10:06:00,40.2,31.9,29.79,WSW,254,11.0,15.0,72,0.00,,,0.37,Wunderground v.1.15,2017-02-25 15:06:00,
2017-02-25 10:12:00,40.2,31.9,29.79,WNW,298,12.0,15.0,72,0.00,,,0.37,Wunderground v.1.15,2017-02-25 15:12:00,
2017-02-25 10:18:00,39.8,32.8,29.80,West,262,11.0,15.0,76,0.00,,,0.37,Wunderground v.1.15,2017-02-25 15:18:00,
2017-02-25 10:24:00,39.4,32.5,29.81,West,281,11.0,15.0,76,0.00,,,0.37,Wunderground v.1.15,2017-02-25 15:24:00,
2017-02-25 10:30:00,38.6,31.4,29.81,WNW,283,11.0,15.0,75,0.00,,,0.37,Wunderground v.1.15,2017-02-25 15:30:00,
2017-02-25 10:36:00,38.4,31.2,29.82,West,268,12.0,15.0,75,0.00,,,0.37,Wunderground v.1.15,2017-02-25 15:36:00,
2017-02-25 10:42:00,38.1,30.9,29.82,WNW,288,12.0,12.0,75,0.00,,,0.37,Wunderground v.1.15,2017-02-25 15:42:00,
2017-02-25 10:48:00,37.7,30.2,29.83,West,274,11.0,15.0,74,0.00,,,0.37,Wunderground v.1.15,2017-02-25 15:48:00,
2017-02-25 10:54:00,37.8,30.3,29.83,WNW,282,11.0,15.0,74,0.00,,,0.37,Wunderground v.1.15,2017-02-25 15:54:00,
2017-02-25 11:00:00,37.5,29.3,29.84,West,275,11.0,16.0,72,0.00,,,0.37,Wunderground v.1.15,2017-02-25 16:00:00,
2017-02-25 11:06:00,37.0,28.8,29.84,West,276,12.0,16.0,72,0.00,,,0.37,Wunderground v.1.15,2017-02-25 16:06:00,
2017-02-25 11:12:00,36.9,28.4,29.84,West,259,11.0,16.0,71,0.00,,,0.37,Wunderground v.1.15,2017-02-25 16:12:00,
2017-02-25 11:18:00,36.5,28.0,29.84,West,275,12.0,16.0,71,0.00,,,0.37,Wunderground v.1.15,2017-02-25 16:18:00,
2017-02-25 11:24:00,36.3,26.7,29.85,NW,304,12.0,15.0,68,0.00,,,0.37,Wunderground v.1.15,2017-02-25 16:24:00,
2017-02-25 11:30:00,37.0,27.4,29.86,West,261,13.0,13.0,68,0.00,,,0.37,Wunderground v.1.15,2017-02-25 16:30:00,
2017-02-25 11:36:00,37.0,26.7,29.86,West,273,12.0,17.0,66,0.00,,,0.37,Wunderground v.1.15,2017-02-25 16:36:00,
2017-02-25 11:42:00,36.3,25.7,29.86,WNW,286,11.0,15.0,65,0.00,,,0.37,Wunderground v.1.15,2017-02-25 16:42:00,
2017-02-25 11:48:00,36.5,26.9,29.87,West,277,11.0,15.0,68,0.00,,,0.37,Wunderground v.1.15,2017-02-25 16:48:00,
2017-02-25 11:54:00,36.4,26.1,29.87,West,275,10.0,15.0,66,0.00,,,0.37,Wunderground v.1.15,2017-02-25 16:54:00,
2017-02-25 12:00:00,35.9,25.6,29.88,WNW,284,10.0,10.0,66,0.00,,,0.37,Wunderground v.1.15,2017-02-25 17:00:00,
2017-02-25 12:06:00,35.7,26.2,29.88,WNW,290,10.0,14.0,68,0.00,,,0.37,Wunderground v.1.15,2017-02-25 17:06:00,
2017-02-25 12:12:00,35.7,26.2,29.88,WNW,294,10.0,10.0,68,0.00,,,0.37,Wunderground v.1.15,2017-02-25 17:12:00,
2017-02-25 12:18:00,35.7,26.2,29.88,West,281,9.0,10.0,68,0.00,,,0.37,Wunderground v.1.15,2017-02-25 17:18:00,
2017-02-25 12:24:00,35.5,26.0,29.88,West,277,9.0,14.0,68,0.00,,,0.37,Wunderground v.1.15,2017-02-25 17:24:00,
2017-02-25 12:30:00,35.9,26.7,29.88,WNW,284,9.0,10.0,69,0.00,,,0.37,Wunderground v.1.15,2017-02-25 17:30:00,
2017-02-25 12:36:00,36.1,25.8,29.88,West,267,9.0,11.0,66,0.00,,,0.37,Wunderground v.1.15,2017-02-25 17:36:00,
2017-02-25 12:42:00,36.1,26.2,29.89,WNW,297,9.0,10.0,67,0.00,,,0.37,Wunderground v.1.15,2017-02-25 17:42:00,
2017-02-25 12:48:00,35.8,25.9,29.89,West,276,9.0,13.0,67,0.00,,,0.37,Wunderground v.1.15,2017-02-25 17:48:00,
2017-02-25 12:54:00,35.3,25.4,29.89,West,270,11.0,13.0,67,0.00,,,0.37,Wunderground v.1.15,2017-02-25 17:54:00,
2017-02-25 13:00:00,35.3,25.4,29.90,West,267,11.0,11.0,67,0.00,,,0.37,Wunderground v.1.15,2017-02-25 18:00:00,
2017-02-25 13:06:00,35.4,25.5,29.90,West,279,10.0,20.0,67,0.00,,,0.37,Wunderground v.1.15,2017-02-25 18:06:00,
2017-02-25 13:12:00,35.0,25.5,29.90,West,276,11.0,20.0,68,0.00,,,0.37,Wunderground v.1.15,2017-02-25 18:12:00,
2017-02-25 13:18:00,34.9,25.4,29.90,WNW,284,11.0,20.0,68,0.00,,,0.37,Wunderground v.1.15,2017-02-25 18:18:00,
2017-02-25 13:24:00,34.5,24.3,29.90,West,268,12.0,20.0,66,0.00,,,0.37,Wunderground v.1.15,2017-02-25 18:24:00,
2017-02-25 13:30:00,35.1,25.6,29.90,WNW,298,10.0,10.0,68,0.00,,,0.37,Wunderground v.1.15,2017-02-25 18:30:00,
2017-02-25 13:36:00,35.0,24.8,29.90,WSW,250,9.0,20.0,66,0.00,,,0.37,Wunderground v.1.15,2017-02-25 18:36:00,
2017-02-25 13:42:00,35.2,25.0,29.91,WSW,257,10.0,20.0,66,0.00,,,0.37,Wunderground v.1.15,2017-02-25 18:42:00,
2017-02-25 13:48:00,35.2,25.3,29.91,WNW,287,9.0,20.0,67,0.00,,,0.37,Wunderground v.1.15,2017-02-25 18:48:00,
2017-02-25 13:54:00,35.0,24.4,29.91,West,259,9.0,20.0,65,0.00,,,0.37,Wunderground v.1.15,2017-02-25 18:54:00,
2017-02-25 14:00:00,35.3,25.4,29.91,West,263,10.0,20.0,67,0.00,,,0.37,Wunderground v.1.15,2017-02-25 19:00:00,
2017-02-25 14:06:00,35.5,24.9,29.91,West,261,9.0,20.0,65,0.00,,,0.37,Wunderground v.1.15,2017-02-25 19:06:00,
2017-02-25 14:12:00,35.7,25.1,29.91,WNW,294,10.0,20.0,65,0.00,,,0.37,Wunderground v.1.15,2017-02-25 19:12:00,